sensor_id;sensor_type;location;lat;lon;timestamp;P1;durP1;ratioP1;P2;durP2;ratioP2
52978;SDS011;51106;53.186;6.598;2022-09-09T00:00:47;11.07;;;8.93;;
52978;SDS011;51106;53.186;6.598;2022-09-09T00:07:37;10.95;;;8.93;;
52978;SDS011;51106;53.186;6.598;2022-09-09T00:10:34;11.65;;;7.88;;
52978;SDS011;51106;53.186;6.598;2022-09-09T00:15:00;13.70;;;8.77;;
52978;SDS011;51106;53.186;6.598;2022-09-09T00:24:42;11.40;;;8.40;;
52978;SDS011;51106;53.186;6.598;2022-09-09T00:27:22;13.05;;;9.43;;
52978;SDS011;51106;53.186;6.598;2022-09-09T00:29:53;11.93;;;8.98;;
52978;SDS011;51106;53.186;6.598;2022-09-09T00:32:17;12.50;;;9.25;;
52978;SDS011;51106;53.186;6.598;2022-09-09T00:34:48;13.73;;;8.95;;
52978;SDS011;51106;53.186;6.598;2022-09-09T00:37:13;16.02;;;9.63;;
52978;SDS011;51106;53.186;6.598;2022-09-09T00:39:41;11.27;;;8.38;;
52978;SDS011;51106;53.186;6.598;2022-09-09T00:44:43;11.88;;;8.57;;
52978;SDS011;51106;53.186;6.598;2022-09-09T00:49:47;14.02;;;9.02;;
52978;SDS011;51106;53.186;6.598;2022-09-09T00:52:24;11.25;;;8.27;;
52978;SDS011;51106;53.186;6.598;2022-09-09T00:55:05;13.77;;;8.90;;
52978;SDS011;51106;53.186;6.598;2022-09-09T00:57:51;11.85;;;9.35;;
52978;SDS011;51106;53.186;6.598;2022-09-09T01:00:17;13.10;;;8.43;;
52978;SDS011;51106;53.186;6.598;2022-09-09T01:05:18;13.05;;;7.95;;
52978;SDS011;51106;53.186;6.598;2022-09-09T01:07:56;9.25;;;6.65;;
52978;SDS011;51106;53.186;6.598;2022-09-09T01:10:30;16.48;;;8.27;;
52978;SDS011;51106;53.186;6.598;2022-09-09T01:13:04;10.57;;;8.18;;
52978;SDS011;51106;53.186;6.598;2022-09-09T01:15:35;13.15;;;8.15;;
52978;SDS011;51106;53.186;6.598;2022-09-09T01:18:00;10.50;;;8.25;;
52978;SDS011;51106;53.186;6.598;2022-09-09T01:20:29;10.80;;;8.25;;
52978;SDS011;51106;53.186;6.598;2022-09-09T01:28:43;11.27;;;9.07;;
52978;SDS011;51106;53.186;6.598;2022-09-09T01:31:07;12.15;;;8.23;;
52978;SDS011;51106;53.186;6.598;2022-09-09T01:38:30;16.35;;;8.88;;
52978;SDS011;51106;53.186;6.598;2022-09-09T01:40:54;13.55;;;8.73;;
52978;SDS011;51106;53.186;6.598;2022-09-09T01:43:16;10.85;;;8.18;;
52978;SDS011;51106;53.186;6.598;2022-09-09T01:45:38;9.68;;;7.57;;
52978;SDS011;51106;53.186;6.598;2022-09-09T01:48:02;11.65;;;8.13;;
52978;SDS011;51106;53.186;6.598;2022-09-09T01:50:25;13.77;;;8.55;;
52978;SDS011;51106;53.186;6.598;2022-09-09T01:52:48;11.45;;;8.68;;
52978;SDS011;51106;53.186;6.598;2022-09-09T01:55:14;13.07;;;8.57;;
52978;SDS011;51106;53.186;6.598;2022-09-09T01:57:39;12.13;;;8.63;;
52978;SDS011;51106;53.186;6.598;2022-09-09T02:00:10;11.60;;;8.77;;
52978;SDS011;51106;53.186;6.598;2022-09-09T02:05:14;11.20;;;8.73;;
52978;SDS011;51106;53.186;6.598;2022-09-09T02:07:41;12.23;;;8.70;;
52978;SDS011;51106;53.186;6.598;2022-09-09T02:10:28;18.27;;;10.13;;
52978;SDS011;51106;53.186;6.598;2022-09-09T02:13:09;11.90;;;9.45;;
52978;SDS011;51106;53.186;6.598;2022-09-09T02:15:35;12.35;;;9.02;;
52978;SDS011;51106;53.186;6.598;2022-09-09T02:17:59;16.50;;;9.02;;
52978;SDS011;51106;53.186;6.598;2022-09-09T02:20:25;15.57;;;9.18;;
52978;SDS011;51106;53.186;6.598;2022-09-09T02:22:54;13.88;;;10.38;;
52978;SDS011;51106;53.186;6.598;2022-09-09T02:25:19;17.70;;;10.48;;
52978;SDS011;51106;53.186;6.598;2022-09-09T02:27:44;17.42;;;10.18;;
52978;SDS011;51106;53.186;6.598;2022-09-09T02:30:08;13.52;;;9.00;;
52978;SDS011;51106;53.186;6.598;2022-09-09T02:32:32;12.80;;;9.15;;
52978;SDS011;51106;53.186;6.598;2022-09-09T02:34:58;13.60;;;9.38;;
52978;SDS011;51106;53.186;6.598;2022-09-09T02:37:27;12.98;;;9.05;;
52978;SDS011;51106;53.186;6.598;2022-09-09T02:39:54;11.55;;;8.80;;
52978;SDS011;51106;53.186;6.598;2022-09-09T02:42:16;12.90;;;9.30;;
52978;SDS011;51106;53.186;6.598;2022-09-09T02:44:38;15.10;;;8.98;;
52978;SDS011;51106;53.186;6.598;2022-09-09T02:52:28;15.55;;;9.07;;
52978;SDS011;51106;53.186;6.598;2022-09-09T02:55:03;12.48;;;8.43;;
52978;SDS011;51106;53.186;6.598;2022-09-09T02:57:30;11.43;;;8.88;;
52978;SDS011;51106;53.186;6.598;2022-09-09T02:59:56;15.90;;;8.52;;
52978;SDS011;51106;53.186;6.598;2022-09-09T03:02:19;11.15;;;8.88;;
52978;SDS011;51106;53.186;6.598;2022-09-09T03:04:41;14.48;;;9.15;;
52978;SDS011;51106;53.186;6.598;2022-09-09T03:07:05;13.68;;;7.88;;
52978;SDS011;51106;53.186;6.598;2022-09-09T03:09:28;14.70;;;8.18;;
52978;SDS011;51106;53.186;6.598;2022-09-09T03:11:50;12.48;;;8.38;;
52978;SDS011;51106;53.186;6.598;2022-09-09T03:14:13;16.27;;;8.57;;
52978;SDS011;51106;53.186;6.598;2022-09-09T03:16:34;12.98;;;8.18;;
52978;SDS011;51106;53.186;6.598;2022-09-09T03:18:56;12.18;;;8.50;;
52978;SDS011;51106;53.186;6.598;2022-09-09T03:21:18;11.32;;;7.82;;
52978;SDS011;51106;53.186;6.598;2022-09-09T03:23:40;12.52;;;7.45;;
52978;SDS011;51106;53.186;6.598;2022-09-09T03:26:02;14.77;;;7.82;;
52978;SDS011;51106;53.186;6.598;2022-09-09T03:28:24;11.30;;;7.03;;
52978;SDS011;51106;53.186;6.598;2022-09-09T03:30:52;12.77;;;6.43;;
52978;SDS011;51106;53.186;6.598;2022-09-09T03:33:20;9.65;;;6.65;;
52978;SDS011;51106;53.186;6.598;2022-09-09T03:35:46;9.50;;;6.68;;
52978;SDS011;51106;53.186;6.598;2022-09-09T03:38:11;12.52;;;6.45;;
52978;SDS011;51106;53.186;6.598;2022-09-09T03:40:33;10.98;;;6.47;;
52978;SDS011;51106;53.186;6.598;2022-09-09T03:42:56;9.93;;;6.57;;
52978;SDS011;51106;53.186;6.598;2022-09-09T03:45:18;9.07;;;6.40;;
52978;SDS011;51106;53.186;6.598;2022-09-09T03:47:40;9.52;;;6.25;;
52978;SDS011;51106;53.186;6.598;2022-09-09T03:50:02;12.07;;;6.97;;
52978;SDS011;51106;53.186;6.598;2022-09-09T03:52:25;8.18;;;5.80;;
52978;SDS011;51106;53.186;6.598;2022-09-09T03:54:48;9.95;;;5.95;;
52978;SDS011;51106;53.186;6.598;2022-09-09T03:57:09;9.55;;;5.97;;
52978;SDS011;51106;53.186;6.598;2022-09-09T03:59:32;12.25;;;5.60;;
52978;SDS011;51106;53.186;6.598;2022-09-09T04:01:53;7.90;;;5.13;;
52978;SDS011;51106;53.186;6.598;2022-09-09T04:04:16;10.50;;;4.78;;
52978;SDS011;51106;53.186;6.598;2022-09-09T04:06:37;9.90;;;4.35;;
52978;SDS011;51106;53.186;6.598;2022-09-09T04:08:59;6.93;;;3.78;;
52978;SDS011;51106;53.186;6.598;2022-09-09T04:11:23;6.20;;;3.63;;
52978;SDS011;51106;53.186;6.598;2022-09-09T04:13:46;6.78;;;3.70;;
52978;SDS011;51106;53.186;6.598;2022-09-09T04:16:09;6.57;;;3.55;;
52978;SDS011;51106;53.186;6.598;2022-09-09T04:18:33;7.63;;;3.60;;
52978;SDS011;51106;53.186;6.598;2022-09-09T04:20:56;8.98;;;3.40;;
52978;SDS011;51106;53.186;6.598;2022-09-09T04:23:19;7.93;;;3.75;;
52978;SDS011;51106;53.186;6.598;2022-09-09T04:25:48;10.80;;;4.07;;
52978;SDS011;51106;53.186;6.598;2022-09-09T04:28:17;7.72;;;3.95;;
52978;SDS011;51106;53.186;6.598;2022-09-09T04:30:41;6.30;;;3.40;;
52978;SDS011;51106;53.186;6.598;2022-09-09T04:33:03;8.55;;;4.35;;
52978;SDS011;51106;53.186;6.598;2022-09-09T04:35:25;5.38;;;3.80;;
52978;SDS011;51106;53.186;6.598;2022-09-09T04:37:48;10.65;;;3.72;;
52978;SDS011;51106;53.186;6.598;2022-09-09T04:40:11;9.95;;;3.72;;
52978;SDS011;51106;53.186;6.598;2022-09-09T04:42:36;4.85;;;3.70;;
52978;SDS011;51106;53.186;6.598;2022-09-09T04:44:58;7.80;;;3.85;;
52978;SDS011;51106;53.186;6.598;2022-09-09T04:47:20;10.23;;;4.47;;
52978;SDS011;51106;53.186;6.598;2022-09-09T04:49:42;5.07;;;3.47;;
52978;SDS011;51106;53.186;6.598;2022-09-09T04:52:04;6.22;;;4.35;;
52978;SDS011;51106;53.186;6.598;2022-09-09T04:54:26;9.95;;;4.20;;
52978;SDS011;51106;53.186;6.598;2022-09-09T04:56:51;7.97;;;4.45;;
52978;SDS011;51106;53.186;6.598;2022-09-09T04:59:13;7.18;;;4.90;;
52978;SDS011;51106;53.186;6.598;2022-09-09T05:01:35;6.82;;;4.57;;
52978;SDS011;51106;53.186;6.598;2022-09-09T05:03:57;11.38;;;5.43;;
52978;SDS011;51106;53.186;6.598;2022-09-09T05:06:20;8.85;;;5.45;;
52978;SDS011;51106;53.186;6.598;2022-09-09T05:08:42;6.30;;;5.05;;
52978;SDS011;51106;53.186;6.598;2022-09-09T05:11:19;6.72;;;4.57;;
52978;SDS011;51106;53.186;6.598;2022-09-09T05:13:45;10.85;;;5.55;;
52978;SDS011;51106;53.186;6.598;2022-09-09T05:16:08;8.65;;;5.85;;
52978;SDS011;51106;53.186;6.598;2022-09-09T05:18:32;9.80;;;5.77;;
52978;SDS011;51106;53.186;6.598;2022-09-09T05:20:59;7.93;;;6.28;;
52978;SDS011;51106;53.186;6.598;2022-09-09T05:23:22;11.60;;;6.22;;
52978;SDS011;51106;53.186;6.598;2022-09-09T05:25:44;9.30;;;6.65;;
52978;SDS011;51106;53.186;6.598;2022-09-09T05:28:16;7.90;;;5.68;;
52978;SDS011;51106;53.186;6.598;2022-09-09T05:30:38;8.77;;;6.18;;
52978;SDS011;51106;53.186;6.598;2022-09-09T05:33:00;8.05;;;5.78;;
52978;SDS011;51106;53.186;6.598;2022-09-09T05:35:22;15.93;;;7.22;;
52978;SDS011;51106;53.186;6.598;2022-09-09T05:37:44;9.98;;;6.88;;
52978;SDS011;51106;53.186;6.598;2022-09-09T05:40:07;11.13;;;7.00;;
52978;SDS011;51106;53.186;6.598;2022-09-09T05:42:30;9.15;;;7.35;;
52978;SDS011;51106;53.186;6.598;2022-09-09T05:44:53;11.85;;;7.78;;
52978;SDS011;51106;53.186;6.598;2022-09-09T05:47:15;9.90;;;7.70;;
52978;SDS011;51106;53.186;6.598;2022-09-09T05:49:38;8.98;;;7.13;;
52978;SDS011;51106;53.186;6.598;2022-09-09T05:52:00;10.65;;;7.40;;
52978;SDS011;51106;53.186;6.598;2022-09-09T05:54:22;12.10;;;8.57;;
52978;SDS011;51106;53.186;6.598;2022-09-09T05:56:44;13.38;;;8.48;;
52978;SDS011;51106;53.186;6.598;2022-09-09T05:59:11;11.00;;;7.70;;
52978;SDS011;51106;53.186;6.598;2022-09-09T06:01:34;10.73;;;8.30;;
52978;SDS011;51106;53.186;6.598;2022-09-09T06:03:57;13.70;;;8.55;;
52978;SDS011;51106;53.186;6.598;2022-09-09T06:06:20;13.15;;;8.90;;
52978;SDS011;51106;53.186;6.598;2022-09-09T06:08:47;10.65;;;8.23;;
52978;SDS011;51106;53.186;6.598;2022-09-09T06:11:16;10.70;;;7.20;;
52978;SDS011;51106;53.186;6.598;2022-09-09T06:13:45;11.80;;;8.35;;
52978;SDS011;51106;53.186;6.598;2022-09-09T06:16:10;9.57;;;6.57;;
52978;SDS011;51106;53.186;6.598;2022-09-09T06:18:33;10.10;;;7.90;;
52978;SDS011;51106;53.186;6.598;2022-09-09T06:20:56;12.13;;;8.02;;
52978;SDS011;51106;53.186;6.598;2022-09-09T06:23:19;12.50;;;7.80;;
52978;SDS011;51106;53.186;6.598;2022-09-09T06:25:41;14.43;;;7.90;;
52978;SDS011;51106;53.186;6.598;2022-09-09T06:28:03;10.25;;;7.38;;
52978;SDS011;51106;53.186;6.598;2022-09-09T06:30:25;10.52;;;7.65;;
52978;SDS011;51106;53.186;6.598;2022-09-09T06:32:47;8.18;;;6.75;;
52978;SDS011;51106;53.186;6.598;2022-09-09T06:35:09;15.07;;;7.70;;
52978;SDS011;51106;53.186;6.598;2022-09-09T06:37:32;10.02;;;7.18;;
52978;SDS011;51106;53.186;6.598;2022-09-09T06:39:54;11.40;;;7.22;;
52978;SDS011;51106;53.186;6.598;2022-09-09T06:42:16;9.55;;;6.50;;
52978;SDS011;51106;53.186;6.598;2022-09-09T06:44:38;8.82;;;6.32;;
52978;SDS011;51106;53.186;6.598;2022-09-09T06:46:59;7.85;;;6.28;;
52978;SDS011;51106;53.186;6.598;2022-09-09T06:49:21;8.35;;;6.80;;
52978;SDS011;51106;53.186;6.598;2022-09-09T06:51:43;9.77;;;6.55;;
52978;SDS011;51106;53.186;6.598;2022-09-09T06:54:05;9.57;;;7.07;;
52978;SDS011;51106;53.186;6.598;2022-09-09T06:56:37;9.85;;;6.93;;
52978;SDS011;51106;53.186;6.598;2022-09-09T06:59:04;9.77;;;6.93;;
52978;SDS011;51106;53.186;6.598;2022-09-09T07:01:28;11.88;;;7.53;;
52978;SDS011;51106;53.186;6.598;2022-09-09T07:03:53;9.77;;;7.15;;
52978;SDS011;51106;53.186;6.598;2022-09-09T07:06:19;10.93;;;6.80;;
52978;SDS011;51106;53.186;6.598;2022-09-09T07:08:43;9.15;;;6.75;;
52978;SDS011;51106;53.186;6.598;2022-09-09T07:11:16;9.50;;;6.70;;
52978;SDS011;51106;53.186;6.598;2022-09-09T07:13:40;8.23;;;6.67;;
52978;SDS011;51106;53.186;6.598;2022-09-09T07:16:06;10.18;;;5.97;;
52978;SDS011;51106;53.186;6.598;2022-09-09T07:18:33;9.07;;;6.15;;
52978;SDS011;51106;53.186;6.598;2022-09-09T07:20:56;9.13;;;6.40;;
52978;SDS011;51106;53.186;6.598;2022-09-09T07:23:18;9.75;;;6.70;;
52978;SDS011;51106;53.186;6.598;2022-09-09T07:25:44;10.73;;;7.47;;
52978;SDS011;51106;53.186;6.598;2022-09-09T07:28:06;9.68;;;6.70;;
52978;SDS011;51106;53.186;6.598;2022-09-09T07:30:28;12.38;;;6.57;;
52978;SDS011;51106;53.186;6.598;2022-09-09T07:32:51;10.48;;;6.50;;
52978;SDS011;51106;53.186;6.598;2022-09-09T07:35:13;10.45;;;6.38;;
52978;SDS011;51106;53.186;6.598;2022-09-09T07:37:36;11.80;;;6.75;;
52978;SDS011;51106;53.186;6.598;2022-09-09T07:39:58;8.82;;;6.35;;
52978;SDS011;51106;53.186;6.598;2022-09-09T07:42:20;10.73;;;6.05;;
52978;SDS011;51106;53.186;6.598;2022-09-09T07:44:42;8.65;;;6.07;;
52978;SDS011;51106;53.186;6.598;2022-09-09T07:47:04;10.77;;;5.97;;
52978;SDS011;51106;53.186;6.598;2022-09-09T07:49:27;11.25;;;6.07;;
52978;SDS011;51106;53.186;6.598;2022-09-09T07:51:53;8.43;;;6.35;;
52978;SDS011;51106;53.186;6.598;2022-09-09T07:54:16;11.20;;;6.68;;
52978;SDS011;51106;53.186;6.598;2022-09-09T07:56:41;8.00;;;5.60;;
52978;SDS011;51106;53.186;6.598;2022-09-09T07:59:03;7.68;;;6.20;;
52978;SDS011;51106;53.186;6.598;2022-09-09T08:01:28;10.40;;;6.47;;
52978;SDS011;51106;53.186;6.598;2022-09-09T08:03:56;13.45;;;6.82;;
52978;SDS011;51106;53.186;6.598;2022-09-09T08:08:43;8.82;;;6.38;;
52978;SDS011;51106;53.186;6.598;2022-09-09T08:11:06;11.98;;;6.65;;
52978;SDS011;51106;53.186;6.598;2022-09-09T08:13:34;8.15;;;5.40;;
52978;SDS011;51106;53.186;6.598;2022-09-09T08:18:29;8.20;;;5.28;;
52978;SDS011;51106;53.186;6.598;2022-09-09T08:20:51;6.43;;;5.15;;
52978;SDS011;51106;53.186;6.598;2022-09-09T08:23:14;9.63;;;6.05;;
52978;SDS011;51106;53.186;6.598;2022-09-09T08:25:36;9.73;;;5.47;;
52978;SDS011;51106;53.186;6.598;2022-09-09T08:27:58;8.32;;;5.15;;
52978;SDS011;51106;53.186;6.598;2022-09-09T08:30:20;8.18;;;5.22;;
52978;SDS011;51106;53.186;6.598;2022-09-09T08:32:42;11.10;;;5.28;;
52978;SDS011;51106;53.186;6.598;2022-09-09T08:35:07;6.95;;;5.60;;
52978;SDS011;51106;53.186;6.598;2022-09-09T08:37:29;8.98;;;4.97;;
52978;SDS011;51106;53.186;6.598;2022-09-09T08:39:53;6.95;;;5.28;;
52978;SDS011;51106;53.186;6.598;2022-09-09T08:58:23;5.90;;;4.70;;
52978;SDS011;51106;53.186;6.598;2022-09-09T09:03:40;10.93;;;4.85;;
52978;SDS011;51106;53.186;6.598;2022-09-09T09:11:59;8.55;;;4.78;;
52978;SDS011;51106;53.186;6.598;2022-09-09T09:14:24;7.28;;;4.82;;
52978;SDS011;51106;53.186;6.598;2022-09-09T09:16:54;7.05;;;5.00;;
52978;SDS011;51106;53.186;6.598;2022-09-09T09:19:20;8.27;;;4.93;;
52978;SDS011;51106;53.186;6.598;2022-09-09T09:21:51;8.90;;;4.53;;
52978;SDS011;51106;53.186;6.598;2022-09-09T09:24:19;8.77;;;4.78;;
52978;SDS011;51106;53.186;6.598;2022-09-09T09:26:46;8.75;;;5.05;;
52978;SDS011;51106;53.186;6.598;2022-09-09T09:29:16;8.20;;;4.38;;
52978;SDS011;51106;53.186;6.598;2022-09-09T09:31:47;10.35;;;4.50;;
52978;SDS011;51106;53.186;6.598;2022-09-09T09:34:13;7.85;;;4.68;;
52978;SDS011;51106;53.186;6.598;2022-09-09T09:36:39;10.25;;;4.45;;
52978;SDS011;51106;53.186;6.598;2022-09-09T09:39:04;8.25;;;4.22;;
52978;SDS011;51106;53.186;6.598;2022-09-09T09:41:46;8.27;;;4.10;;
52978;SDS011;51106;53.186;6.598;2022-09-09T09:44:28;10.68;;;3.92;;
52978;SDS011;51106;53.186;6.598;2022-09-09T09:46:51;11.93;;;4.15;;
52978;SDS011;51106;53.186;6.598;2022-09-09T09:49:14;10.02;;;4.18;;
52978;SDS011;51106;53.186;6.598;2022-09-09T09:51:37;7.90;;;3.40;;
52978;SDS011;51106;53.186;6.598;2022-09-09T09:56:40;9.82;;;3.55;;
52978;SDS011;51106;53.186;6.598;2022-09-09T09:58:54;12.98;;;4.13;;
52978;SDS011;51106;53.186;6.598;2022-09-09T10:01:20;8.13;;;3.50;;
52978;SDS011;51106;53.186;6.598;2022-09-09T10:03:59;11.55;;;4.15;;
52978;SDS011;51106;53.186;6.598;2022-09-09T10:06:30;7.18;;;3.55;;
52978;SDS011;51106;53.186;6.598;2022-09-09T10:09:01;9.85;;;3.72;;
52978;SDS011;51106;53.186;6.598;2022-09-09T10:11:44;8.38;;;3.65;;
52978;SDS011;51106;53.186;6.598;2022-09-09T10:14:30;11.13;;;3.80;;
52978;SDS011;51106;53.186;6.598;2022-09-09T10:16:55;10.50;;;3.10;;
52978;SDS011;51106;53.186;6.598;2022-09-09T10:19:32;8.63;;;3.25;;
52978;SDS011;51106;53.186;6.598;2022-09-09T10:22:06;8.07;;;3.50;;
52978;SDS011;51106;53.186;6.598;2022-09-09T10:35:14;11.65;;;3.28;;
52978;SDS011;51106;53.186;6.598;2022-09-09T10:48:44;7.72;;;2.92;;
52978;SDS011;51106;53.186;6.598;2022-09-09T10:54:35;7.68;;;3.00;;
52978;SDS011;51106;53.186;6.598;2022-09-09T10:57:10;12.00;;;2.97;;
52978;SDS011;51106;53.186;6.598;2022-09-09T10:59:54;8.85;;;2.83;;
52978;SDS011;51106;53.186;6.598;2022-09-09T11:02:25;7.35;;;2.67;;
52978;SDS011;51106;53.186;6.598;2022-09-09T11:05:00;7.82;;;2.92;;
52978;SDS011;51106;53.186;6.598;2022-09-09T11:07:32;7.28;;;2.65;;
52978;SDS011;51106;53.186;6.598;2022-09-09T11:10:01;6.85;;;2.75;;
52978;SDS011;51106;53.186;6.598;2022-09-09T11:12:27;6.72;;;2.38;;
52978;SDS011;51106;53.186;6.598;2022-09-09T11:14:36;9.18;;;2.40;;
52978;SDS011;51106;53.186;6.598;2022-09-09T11:17:15;8.30;;;2.60;;
52978;SDS011;51106;53.186;6.598;2022-09-09T11:19:40;8.32;;;2.97;;
52978;SDS011;51106;53.186;6.598;2022-09-09T11:22:07;5.15;;;2.00;;
52978;SDS011;51106;53.186;6.598;2022-09-09T11:24:40;3.70;;;2.08;;
52978;SDS011;51106;53.186;6.598;2022-09-09T11:27:10;4.55;;;2.25;;
52978;SDS011;51106;53.186;6.598;2022-09-09T11:29:52;6.55;;;2.55;;
52978;SDS011;51106;53.186;6.598;2022-09-09T11:40:59;6.17;;;2.30;;
52978;SDS011;51106;53.186;6.598;2022-09-09T11:43:47;6.80;;;2.30;;
52978;SDS011;51106;53.186;6.598;2022-09-09T11:45:53;9.15;;;2.80;;
52978;SDS011;51106;53.186;6.598;2022-09-09T11:48:41;6.15;;;2.60;;
52978;SDS011;51106;53.186;6.598;2022-09-09T11:51:08;4.05;;;2.25;;
52978;SDS011;51106;53.186;6.598;2022-09-09T11:53:53;7.97;;;2.80;;
52978;SDS011;51106;53.186;6.598;2022-09-09T11:56:27;5.55;;;2.35;;
52978;SDS011;51106;53.186;6.598;2022-09-09T11:58:56;4.63;;;2.13;;
52978;SDS011;51106;53.186;6.598;2022-09-09T12:01:41;6.25;;;2.25;;
52978;SDS011;51106;53.186;6.598;2022-09-09T12:09:35;6.75;;;2.53;;
52978;SDS011;51106;53.186;6.598;2022-09-09T12:14:36;6.05;;;2.45;;
52978;SDS011;51106;53.186;6.598;2022-09-09T12:17:07;10.43;;;2.60;;
52978;SDS011;51106;53.186;6.598;2022-09-09T12:20:35;4.68;;;2.25;;
52978;SDS011;51106;53.186;6.598;2022-09-09T12:31:00;3.65;;;2.00;;
52978;SDS011;51106;53.186;6.598;2022-09-09T12:33:39;5.75;;;2.80;;
52978;SDS011;51106;53.186;6.598;2022-09-09T12:36:04;4.22;;;2.25;;
52978;SDS011;51106;53.186;6.598;2022-09-09T12:38:34;6.63;;;2.22;;
52978;SDS011;51106;53.186;6.598;2022-09-09T12:40:59;5.22;;;2.35;;
52978;SDS011;51106;53.186;6.598;2022-09-09T12:43:22;6.65;;;2.30;;
52978;SDS011;51106;53.186;6.598;2022-09-09T12:45:46;7.95;;;2.63;;
52978;SDS011;51106;53.186;6.598;2022-09-09T12:48:08;5.97;;;2.30;;
52978;SDS011;51106;53.186;6.598;2022-09-09T12:50:37;7.05;;;2.42;;
52978;SDS011;51106;53.186;6.598;2022-09-09T12:53:09;4.43;;;2.10;;
52978;SDS011;51106;53.186;6.598;2022-09-09T12:55:38;5.88;;;2.30;;
52978;SDS011;51106;53.186;6.598;2022-09-09T12:58:00;14.13;;;3.40;;
52978;SDS011;51106;53.186;6.598;2022-09-09T13:00:28;4.55;;;2.20;;
52978;SDS011;51106;53.186;6.598;2022-09-09T13:02:52;13.45;;;3.25;;
52978;SDS011;51106;53.186;6.598;2022-09-09T13:07:43;8.43;;;2.75;;
52978;SDS011;51106;53.186;6.598;2022-09-09T13:10:05;5.57;;;2.60;;
52978;SDS011;51106;53.186;6.598;2022-09-09T13:12:45;9.63;;;2.40;;
52978;SDS011;51106;53.186;6.598;2022-09-09T13:15:11;5.22;;;2.67;;
52978;SDS011;51106;53.186;6.598;2022-09-09T13:17:40;8.60;;;2.45;;
52978;SDS011;51106;53.186;6.598;2022-09-09T13:20:03;5.47;;;2.60;;
52978;SDS011;51106;53.186;6.598;2022-09-09T13:22:33;4.80;;;2.25;;
52978;SDS011;51106;53.186;6.598;2022-09-09T13:24:58;4.63;;;2.33;;
52978;SDS011;51106;53.186;6.598;2022-09-09T13:29:51;6.72;;;2.22;;
52978;SDS011;51106;53.186;6.598;2022-09-09T13:32:18;6.35;;;2.17;;
52978;SDS011;51106;53.186;6.598;2022-09-09T13:34:40;5.90;;;2.08;;
52978;SDS011;51106;53.186;6.598;2022-09-09T13:37:22;6.40;;;2.37;;
52978;SDS011;51106;53.186;6.598;2022-09-09T13:39:52;4.65;;;2.28;;
52978;SDS011;51106;53.186;6.598;2022-09-09T13:42:31;5.07;;;2.38;;
52978;SDS011;51106;53.186;6.598;2022-09-09T13:45:04;6.38;;;2.08;;
52978;SDS011;51106;53.186;6.598;2022-09-09T13:47:27;6.63;;;2.30;;
52978;SDS011;51106;53.186;6.598;2022-09-09T13:49:52;8.63;;;2.50;;
52978;SDS011;51106;53.186;6.598;2022-09-09T13:52:16;4.35;;;1.88;;
52978;SDS011;51106;53.186;6.598;2022-09-09T13:54:40;5.07;;;2.00;;
52978;SDS011;51106;53.186;6.598;2022-09-09T13:57:03;7.47;;;2.28;;
52978;SDS011;51106;53.186;6.598;2022-09-09T13:59:21;4.60;;;2.20;;
52978;SDS011;51106;53.186;6.598;2022-09-09T14:01:43;5.50;;;1.95;;
52978;SDS011;51106;53.186;6.598;2022-09-09T14:04:05;7.15;;;2.00;;
52978;SDS011;51106;53.186;6.598;2022-09-09T14:06:27;2.92;;;1.67;;
52978;SDS011;51106;53.186;6.598;2022-09-09T14:08:51;1.63;;;1.23;;
52978;SDS011;51106;53.186;6.598;2022-09-09T14:11:13;2.80;;;1.30;;
52978;SDS011;51106;53.186;6.598;2022-09-09T14:13:35;2.33;;;1.60;;
52978;SDS011;51106;53.186;6.598;2022-09-09T14:15:58;5.00;;;1.60;;
52978;SDS011;51106;53.186;6.598;2022-09-09T14:18:20;2.55;;;1.40;;
52978;SDS011;51106;53.186;6.598;2022-09-09T14:20:44;3.83;;;1.70;;
52978;SDS011;51106;53.186;6.598;2022-09-09T14:23:08;3.33;;;1.50;;
52978;SDS011;51106;53.186;6.598;2022-09-09T14:25:33;3.20;;;1.70;;
52978;SDS011;51106;53.186;6.598;2022-09-09T14:27:55;4.30;;;1.40;;
52978;SDS011;51106;53.186;6.598;2022-09-09T14:30:17;2.92;;;1.60;;
52978;SDS011;51106;53.186;6.598;2022-09-09T14:32:39;3.47;;;1.75;;
52978;SDS011;51106;53.186;6.598;2022-09-09T14:35:01;6.40;;;1.80;;
52978;SDS011;51106;53.186;6.598;2022-09-09T14:37:23;4.60;;;1.77;;
52978;SDS011;51106;53.186;6.598;2022-09-09T14:39:45;2.28;;;1.60;;
52978;SDS011;51106;53.186;6.598;2022-09-09T14:42:12;5.67;;;1.80;;
52978;SDS011;51106;53.186;6.598;2022-09-09T14:44:34;2.00;;;1.40;;
52978;SDS011;51106;53.186;6.598;2022-09-09T14:46:57;4.60;;;1.70;;
52978;SDS011;51106;53.186;6.598;2022-09-09T14:49:20;3.60;;;1.60;;
52978;SDS011;51106;53.186;6.598;2022-09-09T14:51:42;2.97;;;1.50;;
52978;SDS011;51106;53.186;6.598;2022-09-09T14:54:04;4.18;;;1.50;;
52978;SDS011;51106;53.186;6.598;2022-09-09T14:56:27;4.30;;;1.60;;
52978;SDS011;51106;53.186;6.598;2022-09-09T14:58:52;4.32;;;1.77;;
52978;SDS011;51106;53.186;6.598;2022-09-09T15:01:22;6.93;;;2.08;;
52978;SDS011;51106;53.186;6.598;2022-09-09T15:03:49;4.18;;;2.08;;
52978;SDS011;51106;53.186;6.598;2022-09-09T15:05:57;5.55;;;2.15;;
52978;SDS011;51106;53.186;6.598;2022-09-09T15:07:59;4.65;;;1.88;;
52978;SDS011;51106;53.186;6.598;2022-09-09T15:10:02;2.83;;;1.90;;
52978;SDS011;51106;53.186;6.598;2022-09-09T15:12:05;4.97;;;2.03;;
52978;SDS011;51106;53.186;6.598;2022-09-09T15:14:08;5.20;;;2.28;;
52978;SDS011;51106;53.186;6.598;2022-09-09T15:16:30;4.50;;;2.20;;
52978;SDS011;51106;53.186;6.598;2022-09-09T15:18:35;4.38;;;1.80;;
52978;SDS011;51106;53.186;6.598;2022-09-09T15:20:37;4.38;;;2.25;;
52978;SDS011;51106;53.186;6.598;2022-09-09T15:22:40;3.95;;;2.00;;
52978;SDS011;51106;53.186;6.598;2022-09-09T15:24:42;6.45;;;2.30;;
52978;SDS011;51106;53.186;6.598;2022-09-09T15:26:48;3.60;;;1.90;;
52978;SDS011;51106;53.186;6.598;2022-09-09T15:28:50;5.18;;;2.25;;
52978;SDS011;51106;53.186;6.598;2022-09-09T15:30:54;2.97;;;1.92;;
52978;SDS011;51106;53.186;6.598;2022-09-09T15:32:58;3.78;;;2.42;;
52978;SDS011;51106;53.186;6.598;2022-09-09T15:35:11;3.78;;;1.90;;
52978;SDS011;51106;53.186;6.598;2022-09-09T15:37:18;5.65;;;2.03;;
52978;SDS011;51106;53.186;6.598;2022-09-09T15:39:19;6.60;;;2.35;;
52978;SDS011;51106;53.186;6.598;2022-09-09T15:41:23;4.05;;;2.35;;
52978;SDS011;51106;53.186;6.598;2022-09-09T15:43:30;4.95;;;2.30;;
52978;SDS011;51106;53.186;6.598;2022-09-09T15:45:41;7.18;;;3.30;;
52978;SDS011;51106;53.186;6.598;2022-09-09T15:47:43;4.80;;;1.92;;
52978;SDS011;51106;53.186;6.598;2022-09-09T15:49:46;4.07;;;2.05;;
52978;SDS011;51106;53.186;6.598;2022-09-09T15:51:52;2.80;;;1.75;;
52978;SDS011;51106;53.186;6.598;2022-09-09T15:53:57;3.35;;;1.70;;
52978;SDS011;51106;53.186;6.598;2022-09-09T15:55:59;4.13;;;1.92;;
52978;SDS011;51106;53.186;6.598;2022-09-09T15:58:01;3.45;;;1.85;;
52978;SDS011;51106;53.186;6.598;2022-09-09T16:00:03;3.28;;;1.73;;
52978;SDS011;51106;53.186;6.598;2022-09-09T16:02:08;2.00;;;1.50;;
52978;SDS011;51106;53.186;6.598;2022-09-09T16:06:13;2.83;;;1.70;;
52978;SDS011;51106;53.186;6.598;2022-09-09T16:08:18;4.25;;;1.90;;
52978;SDS011;51106;53.186;6.598;2022-09-09T16:10:20;2.80;;;1.50;;
52978;SDS011;51106;53.186;6.598;2022-09-09T16:12:22;2.85;;;1.70;;
52978;SDS011;51106;53.186;6.598;2022-09-09T16:14:24;3.80;;;1.85;;
52978;SDS011;51106;53.186;6.598;2022-09-09T16:16:27;3.40;;;1.88;;
52978;SDS011;51106;53.186;6.598;2022-09-09T16:18:41;3.83;;;1.80;;
52978;SDS011;51106;53.186;6.598;2022-09-09T16:20:53;3.70;;;2.00;;
52978;SDS011;51106;53.186;6.598;2022-09-09T16:22:56;3.53;;;2.05;;
52978;SDS011;51106;53.186;6.598;2022-09-09T16:24:58;4.82;;;1.92;;
52978;SDS011;51106;53.186;6.598;2022-09-09T16:27:01;4.80;;;1.80;;
52978;SDS011;51106;53.186;6.598;2022-09-09T16:29:04;3.90;;;1.80;;
52978;SDS011;51106;53.186;6.598;2022-09-09T16:31:06;4.95;;;1.83;;